sensor_id;sensor_type;location;lat;lon;timestamp;P1;durP1;ratioP1;P2;durP2;ratioP2
9906;SDS011;4992;51.628;6.664;2023-04-30T00:00:21;8.90;;;7.80;;
9906;SDS011;4992;51.628;6.664;2023-04-30T00:02:47;10.77;;;7.43;;
9906;SDS011;4992;51.628;6.664;2023-04-30T00:05:13;12.10;;;7.63;;
9906;SDS011;4992;51.628;6.664;2023-04-30T00:07:40;9.30;;;8.30;;
9906;SDS011;4992;51.628;6.664;2023-04-30T00:10:07;9.37;;;8.20;;
9906;SDS011;4992;51.628;6.664;2023-04-30T00:12:33;9.80;;;8.43;;
9906;SDS011;4992;51.628;6.664;2023-04-30T00:14:59;10.50;;;8.63;;
9906;SDS011;4992;51.628;6.664;2023-04-30T00:17:25;11.03;;;8.20;;
9906;SDS011;4992;51.628;6.664;2023-04-30T00:19:51;8.57;;;7.53;;
9906;SDS011;4992;51.628;6.664;2023-04-30T00:22:17;10.17;;;8.63;;
9906;SDS011;4992;51.628;6.664;2023-04-30T00:24:43;9.53;;;7.67;;
9906;SDS011;4992;51.628;6.664;2023-04-30T00:27:09;9.57;;;7.73;;
9906;SDS011;4992;51.628;6.664;2023-04-30T00:29:35;9.67;;;7.40;;
9906;SDS011;4992;51.628;6.664;2023-04-30T00:32:01;12.87;;;8.37;;
9906;SDS011;4992;51.628;6.664;2023-04-30T00:34:28;11.90;;;9.07;;
9906;SDS011;4992;51.628;6.664;2023-04-30T00:36:54;9.77;;;8.77;;
9906;SDS011;4992;51.628;6.664;2023-04-30T00:39:20;9.73;;;8.63;;
9906;SDS011;4992;51.628;6.664;2023-04-30T00:41:46;11.20;;;9.27;;
9906;SDS011;4992;51.628;6.664;2023-04-30T00:44:12;9.80;;;8.73;;
9906;SDS011;4992;51.628;6.664;2023-04-30T00:46:37;13.27;;;9.37;;
9906;SDS011;4992;51.628;6.664;2023-04-30T00:49:03;12.10;;;8.90;;
9906;SDS011;4992;51.628;6.664;2023-04-30T00:51:32;10.43;;;8.47;;
9906;SDS011;4992;51.628;6.664;2023-04-30T00:54:00;9.40;;;8.47;;
9906;SDS011;4992;51.628;6.664;2023-04-30T00:56:27;10.53;;;8.83;;
9906;SDS011;4992;51.628;6.664;2023-04-30T00:58:54;9.40;;;8.10;;
9906;SDS011;4992;51.628;6.664;2023-04-30T01:01:22;10.97;;;8.30;;
9906;SDS011;4992;51.628;6.664;2023-04-30T01:03:49;10.90;;;8.33;;
9906;SDS011;4992;51.628;6.664;2023-04-30T01:06:15;12.40;;;8.70;;
9906;SDS011;4992;51.628;6.664;2023-04-30T01:08:40;9.23;;;8.20;;
9906;SDS011;4992;51.628;6.664;2023-04-30T01:13:38;11.20;;;9.00;;
9906;SDS011;4992;51.628;6.664;2023-04-30T01:16:10;9.93;;;8.50;;
9906;SDS011;4992;51.628;6.664;2023-04-30T01:18:46;9.70;;;8.70;;
9906;SDS011;4992;51.628;6.664;2023-04-30T01:21:13;10.27;;;8.77;;
9906;SDS011;4992;51.628;6.664;2023-04-30T01:26:13;9.73;;;8.70;;
9906;SDS011;4992;51.628;6.664;2023-04-30T01:28:41;11.90;;;8.57;;
9906;SDS011;4992;51.628;6.664;2023-04-30T01:31:13;9.20;;;8.30;;
9906;SDS011;4992;51.628;6.664;2023-04-30T01:33:40;9.67;;;8.37;;
9906;SDS011;4992;51.628;6.664;2023-04-30T01:36:12;9.87;;;8.23;;
9906;SDS011;4992;51.628;6.664;2023-04-30T01:39:01;10.37;;;8.50;;
9906;SDS011;4992;51.628;6.664;2023-04-30T01:44:22;9.33;;;8.07;;
9906;SDS011;4992;51.628;6.664;2023-04-30T01:52:38;10.63;;;8.13;;
9906;SDS011;4992;51.628;6.664;2023-04-30T01:55:19;9.93;;;8.63;;
9906;SDS011;4992;51.628;6.664;2023-04-30T01:57:51;9.80;;;8.80;;
9906;SDS011;4992;51.628;6.664;2023-04-30T02:00:18;9.93;;;8.93;;
9906;SDS011;4992;51.628;6.664;2023-04-30T02:02:44;9.20;;;8.30;;
9906;SDS011;4992;51.628;6.664;2023-04-30T02:05:10;10.43;;;9.43;;
9906;SDS011;4992;51.628;6.664;2023-04-30T02:07:38;11.27;;;9.20;;
9906;SDS011;4992;51.628;6.664;2023-04-30T02:10:05;11.30;;;8.57;;
9906;SDS011;4992;51.628;6.664;2023-04-30T02:12:31;9.47;;;8.53;;
9906;SDS011;4992;51.628;6.664;2023-04-30T02:14:57;10.80;;;8.90;;
9906;SDS011;4992;51.628;6.664;2023-04-30T02:17:23;10.57;;;9.50;;
9906;SDS011;4992;51.628;6.664;2023-04-30T02:19:49;10.47;;;9.17;;
9906;SDS011;4992;51.628;6.664;2023-04-30T02:22:15;10.27;;;9.27;;
9906;SDS011;4992;51.628;6.664;2023-04-30T02:24:41;10.43;;;8.40;;
9906;SDS011;4992;51.628;6.664;2023-04-30T02:27:07;10.53;;;8.93;;
9906;SDS011;4992;51.628;6.664;2023-04-30T02:29:33;10.23;;;9.13;;
9906;SDS011;4992;51.628;6.664;2023-04-30T02:31:59;9.73;;;8.50;;
9906;SDS011;4992;51.628;6.664;2023-04-30T02:34:25;9.83;;;8.83;;
9906;SDS011;4992;51.628;6.664;2023-04-30T02:36:51;9.07;;;8.17;;
9906;SDS011;4992;51.628;6.664;2023-04-30T02:39:17;9.83;;;8.27;;
9906;SDS011;4992;51.628;6.664;2023-04-30T02:41:43;9.70;;;8.80;;
9906;SDS011;4992;51.628;6.664;2023-04-30T02:44:10;11.50;;;8.77;;
9906;SDS011;4992;51.628;6.664;2023-04-30T02:46:36;11.03;;;8.93;;
9906;SDS011;4992;51.628;6.664;2023-04-30T02:49:02;11.07;;;8.90;;
9906;SDS011;4992;51.628;6.664;2023-04-30T02:51:28;10.17;;;8.67;;
9906;SDS011;4992;51.628;6.664;2023-04-30T02:53:54;9.60;;;8.63;;
9906;SDS011;4992;51.628;6.664;2023-04-30T02:56:20;10.70;;;8.90;;
9906;SDS011;4992;51.628;6.664;2023-04-30T02:58:46;9.50;;;8.50;;
9906;SDS011;4992;51.628;6.664;2023-04-30T03:01:12;11.23;;;8.83;;
9906;SDS011;4992;51.628;6.664;2023-04-30T03:03:38;9.83;;;8.83;;
9906;SDS011;4992;51.628;6.664;2023-04-30T03:06:04;10.47;;;9.27;;
9906;SDS011;4992;51.628;6.664;2023-04-30T03:08:30;10.23;;;8.33;;
9906;SDS011;4992;51.628;6.664;2023-04-30T03:10:56;10.43;;;9.43;;
9906;SDS011;4992;51.628;6.664;2023-04-30T03:13:22;10.17;;;9.13;;
9906;SDS011;4992;51.628;6.664;2023-04-30T03:15:55;10.83;;;9.73;;
9906;SDS011;4992;51.628;6.664;2023-04-30T03:18:22;10.20;;;9.20;;
9906;SDS011;4992;51.628;6.664;2023-04-30T03:20:48;9.93;;;8.93;;
9906;SDS011;4992;51.628;6.664;2023-04-30T03:23:13;12.63;;;9.33;;
9906;SDS011;4992;51.628;6.664;2023-04-30T03:25:39;12.07;;;9.90;;
9906;SDS011;4992;51.628;6.664;2023-04-30T03:28:05;12.23;;;10.50;;
9906;SDS011;4992;51.628;6.664;2023-04-30T03:30:31;13.87;;;10.13;;
9906;SDS011;4992;51.628;6.664;2023-04-30T03:32:57;10.27;;;9.27;;
9906;SDS011;4992;51.628;6.664;2023-04-30T03:35:23;10.93;;;9.77;;
9906;SDS011;4992;51.628;6.664;2023-04-30T03:37:49;12.53;;;9.40;;
9906;SDS011;4992;51.628;6.664;2023-04-30T03:40:15;12.63;;;10.00;;
9906;SDS011;4992;51.628;6.664;2023-04-30T03:42:41;12.37;;;9.90;;
9906;SDS011;4992;51.628;6.664;2023-04-30T03:45:07;11.77;;;9.87;;
9906;SDS011;4992;51.628;6.664;2023-04-30T03:47:34;11.83;;;9.67;;
9906;SDS011;4992;51.628;6.664;2023-04-30T03:50:01;11.80;;;10.23;;
9906;SDS011;4992;51.628;6.664;2023-04-30T03:52:27;12.87;;;10.57;;
9906;SDS011;4992;51.628;6.664;2023-04-30T03:54:53;10.33;;;9.10;;
9906;SDS011;4992;51.628;6.664;2023-04-30T03:57:20;11.83;;;9.53;;
9906;SDS011;4992;51.628;6.664;2023-04-30T03:59:46;10.57;;;9.47;;
9906;SDS011;4992;51.628;6.664;2023-04-30T04:02:12;11.63;;;9.07;;
9906;SDS011;4992;51.628;6.664;2023-04-30T04:04:38;11.23;;;9.93;;
9906;SDS011;4992;51.628;6.664;2023-04-30T04:07:04;13.03;;;9.73;;
9906;SDS011;4992;51.628;6.664;2023-04-30T04:09:31;12.70;;;9.60;;
9906;SDS011;4992;51.628;6.664;2023-04-30T04:11:57;12.57;;;9.53;;
9906;SDS011;4992;51.628;6.664;2023-04-30T04:14:23;11.60;;;9.93;;
9906;SDS011;4992;51.628;6.664;2023-04-30T04:16:49;11.90;;;10.03;;
9906;SDS011;4992;51.628;6.664;2023-04-30T04:19:15;11.60;;;9.83;;
9906;SDS011;4992;51.628;6.664;2023-04-30T04:21:41;13.03;;;10.07;;
9906;SDS011;4992;51.628;6.664;2023-04-30T04:24:07;12.97;;;10.23;;
9906;SDS011;4992;51.628;6.664;2023-04-30T04:26:36;11.10;;;9.80;;
9906;SDS011;4992;51.628;6.664;2023-04-30T04:29:02;10.50;;;8.90;;
9906;SDS011;4992;51.628;6.664;2023-04-30T04:31:29;12.43;;;10.40;;
9906;SDS011;4992;51.628;6.664;2023-04-30T04:33:56;11.97;;;10.77;;
9906;SDS011;4992;51.628;6.664;2023-04-30T04:36:23;12.67;;;10.90;;
9906;SDS011;4992;51.628;6.664;2023-04-30T04:38:51;13.80;;;10.83;;
9906;SDS011;4992;51.628;6.664;2023-04-30T04:41:17;13.60;;;11.40;;
9906;SDS011;4992;51.628;6.664;2023-04-30T04:43:43;12.33;;;11.03;;
9906;SDS011;4992;51.628;6.664;2023-04-30T04:46:09;12.20;;;10.57;;
9906;SDS011;4992;51.628;6.664;2023-04-30T04:48:35;11.40;;;10.17;;
9906;SDS011;4992;51.628;6.664;2023-04-30T04:51:01;12.43;;;10.63;;
9906;SDS011;4992;51.628;6.664;2023-04-30T04:53:27;13.93;;;11.33;;
9906;SDS011;4992;51.628;6.664;2023-04-30T04:55:53;12.97;;;10.53;;
9906;SDS011;4992;51.628;6.664;2023-04-30T04:58:20;12.87;;;10.43;;
9906;SDS011;4992;51.628;6.664;2023-04-30T05:00:46;13.00;;;11.30;;
9906;SDS011;4992;51.628;6.664;2023-04-30T05:03:12;11.90;;;10.40;;
9906;SDS011;4992;51.628;6.664;2023-04-30T05:05:38;12.60;;;11.27;;
9906;SDS011;4992;51.628;6.664;2023-04-30T05:08:04;12.73;;;10.33;;
9906;SDS011;4992;51.628;6.664;2023-04-30T05:10:30;13.33;;;10.50;;
9906;SDS011;4992;51.628;6.664;2023-04-30T05:12:56;14.27;;;10.43;;
9906;SDS011;4992;51.628;6.664;2023-04-30T05:15:22;12.80;;;10.67;;
9906;SDS011;4992;51.628;6.664;2023-04-30T05:17:48;13.20;;;10.30;;
9906;SDS011;4992;51.628;6.664;2023-04-30T05:20:14;14.43;;;9.70;;
9906;SDS011;4992;51.628;6.664;2023-04-30T05:22:40;12.17;;;9.63;;
9906;SDS011;4992;51.628;6.664;2023-04-30T05:25:06;12.93;;;10.07;;
9906;SDS011;4992;51.628;6.664;2023-04-30T05:27:32;11.00;;;9.63;;
9906;SDS011;4992;51.628;6.664;2023-04-30T05:29:58;13.33;;;10.40;;
9906;SDS011;4992;51.628;6.664;2023-04-30T05:32:25;13.60;;;10.33;;
9906;SDS011;4992;51.628;6.664;2023-04-30T05:34:51;12.87;;;11.40;;
9906;SDS011;4992;51.628;6.664;2023-04-30T05:37:17;14.10;;;11.97;;
9906;SDS011;4992;51.628;6.664;2023-04-30T05:39:44;11.00;;;9.87;;
9906;SDS011;4992;51.628;6.664;2023-04-30T05:42:10;10.57;;;9.43;;
9906;SDS011;4992;51.628;6.664;2023-04-30T05:44:36;10.93;;;9.90;;
9906;SDS011;4992;51.628;6.664;2023-04-30T05:47:02;10.73;;;8.77;;
9906;SDS011;4992;51.628;6.664;2023-04-30T05:49:28;11.20;;;9.80;;
9906;SDS011;4992;51.628;6.664;2023-04-30T05:51:54;12.33;;;9.33;;
9906;SDS011;4992;51.628;6.664;2023-04-30T05:54:20;11.57;;;10.37;;
9906;SDS011;4992;51.628;6.664;2023-04-30T05:56:46;15.53;;;11.43;;
9906;SDS011;4992;51.628;6.664;2023-04-30T05:59:12;14.20;;;12.07;;
9906;SDS011;4992;51.628;6.664;2023-04-30T06:01:38;14.87;;;12.30;;
9906;SDS011;4992;51.628;6.664;2023-04-30T06:04:04;16.40;;;13.00;;
9906;SDS011;4992;51.628;6.664;2023-04-30T06:06:30;18.70;;;13.90;;
9906;SDS011;4992;51.628;6.664;2023-04-30T06:08:56;15.87;;;11.53;;
9906;SDS011;4992;51.628;6.664;2023-04-30T06:11:22;13.63;;;11.90;;
9906;SDS011;4992;51.628;6.664;2023-04-30T06:13:49;11.87;;;10.67;;
9906;SDS011;4992;51.628;6.664;2023-04-30T06:16:16;9.67;;;8.67;;
9906;SDS011;4992;51.628;6.664;2023-04-30T06:18:42;9.53;;;7.97;;
9906;SDS011;4992;51.628;6.664;2023-04-30T06:21:08;10.83;;;7.93;;
9906;SDS011;4992;51.628;6.664;2023-04-30T06:23:34;9.63;;;8.60;;
9906;SDS011;4992;51.628;6.664;2023-04-30T06:26:01;8.13;;;7.23;;
9906;SDS011;4992;51.628;6.664;2023-04-30T06:28:27;9.93;;;7.63;;
9906;SDS011;4992;51.628;6.664;2023-04-30T06:30:53;9.23;;;8.23;;
9906;SDS011;4992;51.628;6.664;2023-04-30T06:33:20;8.50;;;7.70;;
9906;SDS011;4992;51.628;6.664;2023-04-30T06:35:46;8.50;;;7.70;;
9906;SDS011;4992;51.628;6.664;2023-04-30T06:38:12;8.90;;;7.50;;
9906;SDS011;4992;51.628;6.664;2023-04-30T06:40:38;8.87;;;8.03;;
9906;SDS011;4992;51.628;6.664;2023-04-30T06:43:04;8.07;;;7.20;;
9906;SDS011;4992;51.628;6.664;2023-04-30T06:45:30;9.43;;;8.00;;
9906;SDS011;4992;51.628;6.664;2023-04-30T06:47:56;7.73;;;6.93;;
9906;SDS011;4992;51.628;6.664;2023-04-30T06:50:23;7.57;;;6.88;;
9906;SDS011;4992;51.628;6.664;2023-04-30T06:52:50;8.57;;;7.35;;
9906;SDS011;4992;51.628;6.664;2023-04-30T06:55:16;7.10;;;6.45;;
9906;SDS011;4992;51.628;6.664;2023-04-30T06:57:42;7.50;;;6.80;;
9906;SDS011;4992;51.628;6.664;2023-04-30T07:00:08;8.23;;;6.82;;
9906;SDS011;4992;51.628;6.664;2023-04-30T07:02:34;9.48;;;6.85;;
9906;SDS011;4992;51.628;6.664;2023-04-30T07:05:00;8.20;;;7.40;;
9906;SDS011;4992;51.628;6.664;2023-04-30T07:07:26;7.47;;;6.85;;
9906;SDS011;4992;51.628;6.664;2023-04-30T07:09:52;7.07;;;6.28;;
9906;SDS011;4992;51.628;6.664;2023-04-30T07:12:18;7.55;;;6.65;;
9906;SDS011;4992;51.628;6.664;2023-04-30T07:14:44;10.23;;;7.90;;
9906;SDS011;4992;51.628;6.664;2023-04-30T07:17:10;8.55;;;7.35;;
9906;SDS011;4992;51.628;6.664;2023-04-30T07:19:36;7.80;;;6.70;;
9906;SDS011;4992;51.628;6.664;2023-04-30T07:22:02;8.45;;;6.80;;
9906;SDS011;4992;51.628;6.664;2023-04-30T07:24:28;7.40;;;6.70;;
9906;SDS011;4992;51.628;6.664;2023-04-30T07:26:54;8.55;;;6.88;;
9906;SDS011;4992;51.628;6.664;2023-04-30T07:29:20;6.90;;;6.30;;
9906;SDS011;4992;51.628;6.664;2023-04-30T07:31:46;7.28;;;6.10;;
9906;SDS011;4992;51.628;6.664;2023-04-30T07:34:12;7.30;;;6.65;;
9906;SDS011;4992;51.628;6.664;2023-04-30T07:36:38;7.50;;;6.80;;
9906;SDS011;4992;51.628;6.664;2023-04-30T07:39:04;7.05;;;6.15;;
9906;SDS011;4992;51.628;6.664;2023-04-30T07:41:30;7.50;;;6.80;;
9906;SDS011;4992;51.628;6.664;2023-04-30T07:43:56;7.43;;;6.18;;
9906;SDS011;4992;51.628;6.664;2023-04-30T07:46:23;8.60;;;7.65;;
9906;SDS011;4992;51.628;6.664;2023-04-30T07:48:49;7.03;;;6.43;;
9906;SDS011;4992;51.628;6.664;2023-04-30T07:51:15;8.35;;;6.57;;
9906;SDS011;4992;51.628;6.664;2023-04-30T07:53:42;7.72;;;6.97;;
9906;SDS011;4992;51.628;6.664;2023-04-30T07:56:08;9.05;;;6.70;;
9906;SDS011;4992;51.628;6.664;2023-04-30T07:58:33;8.93;;;7.20;;
9906;SDS011;4992;51.628;6.664;2023-04-30T08:00:59;7.85;;;7.05;;
9906;SDS011;4992;51.628;6.664;2023-04-30T08:03:25;8.30;;;7.07;;
9906;SDS011;4992;51.628;6.664;2023-04-30T08:05:51;7.57;;;6.95;;
9906;SDS011;4992;51.628;6.664;2023-04-30T08:08:17;8.95;;;6.55;;
9906;SDS011;4992;51.628;6.664;2023-04-30T08:10:43;7.72;;;7.03;;
9906;SDS011;4992;51.628;6.664;2023-04-30T08:13:09;7.40;;;6.43;;
9906;SDS011;4992;51.628;6.664;2023-04-30T08:15:35;7.55;;;6.70;;
9906;SDS011;4992;51.628;6.664;2023-04-30T08:18:02;7.40;;;6.60;;
9906;SDS011;4992;51.628;6.664;2023-04-30T08:20:29;7.00;;;6.32;;
9906;SDS011;4992;51.628;6.664;2023-04-30T08:22:56;7.15;;;6.22;;
9906;SDS011;4992;51.628;6.664;2023-04-30T08:25:22;6.72;;;6.10;;
9906;SDS011;4992;51.628;6.664;2023-04-30T08:27:48;7.68;;;6.82;;
9906;SDS011;4992;51.628;6.664;2023-04-30T08:30:14;7.18;;;6.28;;
9906;SDS011;4992;51.628;6.664;2023-04-30T08:32:40;6.05;;;5.45;;
9906;SDS011;4992;51.628;6.664;2023-04-30T08:35:06;6.82;;;6.10;;
9906;SDS011;4992;51.628;6.664;2023-04-30T08:37:32;6.85;;;5.55;;
9906;SDS011;4992;51.628;6.664;2023-04-30T08:39:58;5.95;;;5.43;;
9906;SDS011;4992;51.628;6.664;2023-04-30T08:42:25;7.05;;;5.07;;
9906;SDS011;4992;51.628;6.664;2023-04-30T08:44:54;6.85;;;5.82;;
9906;SDS011;4992;51.628;6.664;2023-04-30T08:47:20;6.90;;;5.07;;
9906;SDS011;4992;51.628;6.664;2023-04-30T08:49:47;5.60;;;5.10;;
9906;SDS011;4992;51.628;6.664;2023-04-30T08:52:12;6.80;;;5.55;;
9906;SDS011;4992;51.628;6.664;2023-04-30T08:54:38;5.72;;;4.70;;
9906;SDS011;4992;51.628;6.664;2023-04-30T08:57:04;4.78;;;4.00;;
9906;SDS011;4992;51.628;6.664;2023-04-30T08:59:31;4.50;;;4.10;;
9906;SDS011;4992;51.628;6.664;2023-04-30T09:01:58;4.00;;;3.70;;
9906;SDS011;4992;51.628;6.664;2023-04-30T09:04:25;3.92;;;3.38;;
9906;SDS011;4992;51.628;6.664;2023-04-30T09:06:52;4.32;;;3.85;;
9906;SDS011;4992;51.628;6.664;2023-04-30T09:09:29;3.67;;;3.38;;
9906;SDS011;4992;51.628;6.664;2023-04-30T09:12:09;3.72;;;3.38;;
9906;SDS011;4992;51.628;6.664;2023-04-30T09:14:37;3.70;;;2.60;;
9906;SDS011;4992;51.628;6.664;2023-04-30T09:17:04;2.78;;;2.42;;
9906;SDS011;4992;51.628;6.664;2023-04-30T09:19:30;3.88;;;3.03;;
9906;SDS011;4992;51.628;6.664;2023-04-30T09:21:56;3.03;;;2.35;;
9906;SDS011;4992;51.628;6.664;2023-04-30T09:24:23;3.80;;;3.15;;
9906;SDS011;4992;51.628;6.664;2023-04-30T09:26:49;3.55;;;3.25;;
9906;SDS011;4992;51.628;6.664;2023-04-30T09:29:15;4.38;;;3.30;;
9906;SDS011;4992;51.628;6.664;2023-04-30T09:31:43;3.40;;;2.78;;
9906;SDS011;4992;51.628;6.664;2023-04-30T09:34:09;5.20;;;3.20;;
9906;SDS011;4992;51.628;6.664;2023-04-30T09:36:36;4.07;;;3.33;;
9906;SDS011;4992;51.628;6.664;2023-04-30T09:39:08;4.65;;;3.47;;
9906;SDS011;4992;51.628;6.664;2023-04-30T09:41:42;3.97;;;2.80;;
9906;SDS011;4992;51.628;6.664;2023-04-30T09:44:24;5.10;;;3.42;;
9906;SDS011;4992;51.628;6.664;2023-04-30T09:46:51;3.58;;;3.00;;
9906;SDS011;4992;51.628;6.664;2023-04-30T09:49:17;3.38;;;2.83;;
9906;SDS011;4992;51.628;6.664;2023-04-30T09:51:57;4.32;;;2.42;;
9906;SDS011;4992;51.628;6.664;2023-04-30T09:54:30;2.72;;;2.53;;
9906;SDS011;4992;51.628;6.664;2023-04-30T09:56:57;1.83;;;1.63;;
9906;SDS011;4992;51.628;6.664;2023-04-30T09:59:27;2.72;;;2.50;;
9906;SDS011;4992;51.628;6.664;2023-04-30T10:01:54;2.78;;;2.35;;
9906;SDS011;4992;51.628;6.664;2023-04-30T10:04:22;3.63;;;2.80;;
9906;SDS011;4992;51.628;6.664;2023-04-30T10:06:50;4.45;;;2.80;;
9906;SDS011;4992;51.628;6.664;2023-04-30T10:09:17;4.18;;;2.90;;
9906;SDS011;4992;51.628;6.664;2023-04-30T10:11:43;2.63;;;2.42;;
9906;SDS011;4992;51.628;6.664;2023-04-30T10:14:09;2.70;;;2.50;;
9906;SDS011;4992;51.628;6.664;2023-04-30T10:16:46;2.55;;;1.92;;
9906;SDS011;4992;51.628;6.664;2023-04-30T10:19:21;2.63;;;1.85;;
9906;SDS011;4992;51.628;6.664;2023-04-30T10:21:47;1.65;;;1.50;;
9906;SDS011;4992;51.628;6.664;2023-04-30T10:24:13;1.67;;;1.30;;
9906;SDS011;4992;51.628;6.664;2023-04-30T10:26:42;1.88;;;1.17;;
9906;SDS011;4992;51.628;6.664;2023-04-30T10:29:08;2.05;;;1.70;;
9906;SDS011;4992;51.628;6.664;2023-04-30T10:31:34;1.77;;;1.45;;
9906;SDS011;4992;51.628;6.664;2023-04-30T10:36:49;2.45;;;2.10;;
9906;SDS011;4992;51.628;6.664;2023-04-30T10:39:20;2.17;;;1.40;;
9906;SDS011;4992;51.628;6.664;2023-04-30T10:41:47;2.63;;;1.60;;
9906;SDS011;4992;51.628;6.664;2023-04-30T10:44:13;2.60;;;1.95;;
9906;SDS011;4992;51.628;6.664;2023-04-30T10:46:40;1.98;;;1.73;;
9906;SDS011;4992;51.628;6.664;2023-04-30T10:49:06;2.20;;;1.50;;
9906;SDS011;4992;51.628;6.664;2023-04-30T10:51:48;2.25;;;1.77;;
9906;SDS011;4992;51.628;6.664;2023-04-30T10:54:16;1.73;;;1.50;;
9906;SDS011;4992;51.628;6.664;2023-04-30T10:56:47;1.80;;;1.70;;
9906;SDS011;4992;51.628;6.664;2023-04-30T10:59:13;2.05;;;1.70;;
9906;SDS011;4992;51.628;6.664;2023-04-30T11:01:53;1.80;;;1.70;;
9906;SDS011;4992;51.628;6.664;2023-04-30T11:04:19;2.60;;;1.98;;
9906;SDS011;4992;51.628;6.664;2023-04-30T11:09:34;2.20;;;1.90;;
9906;SDS011;4992;51.628;6.664;2023-04-30T11:12:02;3.78;;;2.10;;
9906;SDS011;4992;51.628;6.664;2023-04-30T11:14:30;3.55;;;1.73;;
9906;SDS011;4992;51.628;6.664;2023-04-30T11:16:56;2.55;;;1.27;;
9906;SDS011;4992;51.628;6.664;2023-04-30T11:19:25;2.15;;;1.60;;
9906;SDS011;4992;51.628;6.664;2023-04-30T11:27:12;2.38;;;1.70;;
9906;SDS011;4992;51.628;6.664;2023-04-30T11:29:38;1.40;;;1.30;;
9906;SDS011;4992;51.628;6.664;2023-04-30T11:32:04;1.60;;;1.50;;
9906;SDS011;4992;51.628;6.664;2023-04-30T11:34:31;3.00;;;1.92;;
9906;SDS011;4992;51.628;6.664;2023-04-30T11:36:59;3.17;;;1.80;;
9906;SDS011;4992;51.628;6.664;2023-04-30T11:39:26;2.13;;;1.80;;
9906;SDS011;4992;51.628;6.664;2023-04-30T11:41:53;3.80;;;2.00;;
9906;SDS011;4992;51.628;6.664;2023-04-30T11:44:26;4.38;;;1.90;;
9906;SDS011;4992;51.628;6.664;2023-04-30T11:46:52;2.28;;;1.90;;
9906;SDS011;4992;51.628;6.664;2023-04-30T11:49:21;3.75;;;1.58;;
9906;SDS011;4992;51.628;6.664;2023-04-30T11:51:48;2.10;;;1.60;;
9906;SDS011;4992;51.628;6.664;2023-04-30T11:54:14;1.90;;;1.48;;
9906;SDS011;4992;51.628;6.664;2023-04-30T11:56:44;1.65;;;1.42;;
9906;SDS011;4992;51.628;6.664;2023-04-30T11:59:14;2.38;;;1.20;;
9906;SDS011;4992;51.628;6.664;2023-04-30T12:01:41;1.50;;;1.05;;
9906;SDS011;4992;51.628;6.664;2023-04-30T12:04:08;2.47;;;1.50;;
9906;SDS011;4992;51.628;6.664;2023-04-30T12:06:34;1.88;;;0.90;;
9906;SDS011;4992;51.628;6.664;2023-04-30T12:09:00;0.95;;;0.70;;
9906;SDS011;4992;51.628;6.664;2023-04-30T12:11:33;1.80;;;1.08;;
9906;SDS011;4992;51.628;6.664;2023-04-30T12:16:37;2.30;;;1.30;;
9906;SDS011;4992;51.628;6.664;2023-04-30T12:19:04;2.72;;;1.38;;
9906;SDS011;4992;51.628;6.664;2023-04-30T12:21:30;1.02;;;1.00;;
9906;SDS011;4992;51.628;6.664;2023-04-30T12:23:56;1.27;;;0.90;;
9906;SDS011;4992;51.628;6.664;2023-04-30T12:26:22;1.55;;;0.60;;
9906;SDS011;4992;51.628;6.664;2023-04-30T12:28:48;0.80;;;0.45;;
9906;SDS011;4992;51.628;6.664;2023-04-30T12:31:17;1.88;;;0.80;;
9906;SDS011;4992;51.628;6.664;2023-04-30T12:33:43;0.60;;;0.40;;
9906;SDS011;4992;51.628;6.664;2023-04-30T12:36:09;0.30;;;0.30;;
9906;SDS011;4992;51.628;6.664;2023-04-30T12:38:35;1.02;;;0.90;;
9906;SDS011;4992;51.628;6.664;2023-04-30T12:41:03;0.77;;;0.47;;
9906;SDS011;4992;51.628;6.664;2023-04-30T12:43:29;1.60;;;1.00;;
9906;SDS011;4992;51.628;6.664;2023-04-30T12:45:55;1.70;;;0.90;;
9906;SDS011;4992;51.628;6.664;2023-04-30T12:48:22;1.65;;;0.73;;
9906;SDS011;4992;51.628;6.664;2023-04-30T12:53:21;1.98;;;0.88;;
9906;SDS011;4992;51.628;6.664;2023-04-30T12:56:07;0.95;;;0.47;;
9906;SDS011;4992;51.628;6.664;2023-04-30T12:58:33;0.88;;;0.68;;
9906;SDS011;4992;51.628;6.664;2023-04-30T13:00:59;1.55;;;0.57;;
9906;SDS011;4992;51.628;6.664;2023-04-30T13:03:25;0.90;;;0.82;;
9906;SDS011;4992;51.628;6.664;2023-04-30T13:05:51;6.38;;;4.65;;
9906;SDS011;4992;51.628;6.664;2023-04-30T13:08:18;1.58;;;0.55;;
9906;SDS011;4992;51.628;6.664;2023-04-30T13:10:45;2.17;;;0.55;;
9906;SDS011;4992;51.628;6.664;2023-04-30T13:13:12;0.95;;;0.75;;
9906;SDS011;4992;51.628;6.664;2023-04-30T13:15:38;2.05;;;1.52;;
9906;SDS011;4992;51.628;6.664;2023-04-30T13:18:05;3.70;;;1.60;;
9906;SDS011;4992;51.628;6.664;2023-04-30T13:20:32;2.95;;;1.30;;
9906;SDS011;4992;51.628;6.664;2023-04-30T13:22:58;2.15;;;1.02;;
9906;SDS011;4992;51.628;6.664;2023-04-30T13:25:25;4.57;;;1.50;;
9906;SDS011;4992;51.628;6.664;2023-04-30T13:27:51;2.45;;;1.02;;
9906;SDS011;4992;51.628;6.664;2023-04-30T13:30:17;3.03;;;1.10;;
9906;SDS011;4992;51.628;6.664;2023-04-30T13:32:42;1.30;;;1.02;;
9906;SDS011;4992;51.628;6.664;2023-04-30T13:35:10;1.40;;;0.60;;
9906;SDS011;4992;51.628;6.664;2023-04-30T13:37:36;1.65;;;0.75;;
9906;SDS011;4992;51.628;6.664;2023-04-30T13:40:02;0.57;;;0.43;;
9906;SDS011;4992;51.628;6.664;2023-04-30T13:42:28;0.85;;;0.55;;
9906;SDS011;4992;51.628;6.664;2023-04-30T13:44:54;0.80;;;0.60;;
9906;SDS011;4992;51.628;6.664;2023-04-30T13:47:21;3.15;;;0.60;;
9906;SDS011;4992;51.628;6.664;2023-04-30T13:49:46;2.58;;;0.80;;
9906;SDS011;4992;51.628;6.664;2023-04-30T13:52:12;0.98;;;0.65;;
9906;SDS011;4992;51.628;6.664;2023-04-30T13:54:38;1.02;;;0.60;;
9906;SDS011;4992;51.628;6.664;2023-04-30T13:57:05;1.50;;;0.80;;
9906;SDS011;4992;51.628;6.664;2023-04-30T13:59:31;2.00;;;0.60;;
9906;SDS011;4992;51.628;6.664;2023-04-30T14:01:57;0.70;;;0.52;;
9906;SDS011;4992;51.628;6.664;2023-04-30T14:04:23;0.80;;;0.50;;
9906;SDS011;4992;51.628;6.664;2023-04-30T14:06:49;2.08;;;0.60;;
9906;SDS011;4992;51.628;6.664;2023-04-30T14:09:16;2.10;;;0.77;;
9906;SDS011;4992;51.628;6.664;2023-04-30T14:11:42;1.20;;;0.55;;
9906;SDS011;4992;51.628;6.664;2023-04-30T14:14:08;2.05;;;0.85;;
9906;SDS011;4992;51.628;6.664;2023-04-30T14:16:34;2.67;;;0.90;;
9906;SDS011;4992;51.628;6.664;2023-04-30T14:19:00;0.93;;;0.80;;
9906;SDS011;4992;51.628;6.664;2023-04-30T14:21:26;1.30;;;0.60;;
9906;SDS011;4992;51.628;6.664;2023-04-30T14:23:52;0.85;;;0.70;;
9906;SDS011;4992;51.628;6.664;2023-04-30T14:26:18;3.05;;;0.90;;
9906;SDS011;4992;51.628;6.664;2023-04-30T14:28:45;0.98;;;0.60;;
9906;SDS011;4992;51.628;6.664;2023-04-30T14:31:11;2.35;;;0.77;;
9906;SDS011;4992;51.628;6.664;2023-04-30T14:33:37;2.30;;;0.70;;
9906;SDS011;4992;51.628;6.664;2023-04-30T14:36:04;1.40;;;0.82;;
9906;SDS011;4992;51.628;6.664;2023-04-30T14:38:30;2.40;;;1.20;;
9906;SDS011;4992;51.628;6.664;2023-04-30T14:40:56;1.42;;;0.68;;
9906;SDS011;4992;51.628;6.664;2023-04-30T14:43:22;2.30;;;1.02;;
9906;SDS011;4992;51.628;6.664;2023-04-30T14:45:48;3.33;;;1.10;;
9906;SDS011;4992;51.628;6.664;2023-04-30T14:48:14;1.23;;;0.50;;
9906;SDS011;4992;51.628;6.664;2023-04-30T14:50:40;0.85;;;0.52;;
9906;SDS011;4992;51.628;6.664;2023-04-30T14:53:06;0.95;;;0.50;;
9906;SDS011;4992;51.628;6.664;2023-04-30T14:55:33;1.90;;;1.05;;
9906;SDS011;4992;51.628;6.664;2023-04-30T14:58:00;1.65;;;0.75;;
9906;SDS011;4992;51.628;6.664;2023-04-30T15:00:25;3.17;;;0.73;;
9906;SDS011;4992;51.628;6.664;2023-04-30T15:02:53;2.30;;;0.90;;
9906;SDS011;4992;51.628;6.664;2023-04-30T15:05:19;0.80;;;0.60;;
9906;SDS011;4992;51.628;6.664;2023-04-30T15:07:45;2.05;;;1.23;;
9906;SDS011;4992;51.628;6.664;2023-04-30T15:10:11;1.25;;;1.05;;
9906;SDS011;4992;51.628;6.664;2023-04-30T15:12:37;3.50;;;1.15;;
9906;SDS011;4992;51.628;6.664;2023-04-30T15:15:03;1.40;;;0.80;;
9906;SDS011;4992;51.628;6.664;2023-04-30T15:17:30;2.33;;;0.60;;
9906;SDS011;4992;51.628;6.664;2023-04-30T15:19:58;1.25;;;0.60;;
9906;SDS011;4992;51.628;6.664;2023-04-30T15:22:26;1.38;;;0.47;;
9906;SDS011;4992;51.628;6.664;2023-04-30T15:24:52;2.03;;;0.70;;
9906;SDS011;4992;51.628;6.664;2023-04-30T15:27:18;1.55;;;0.40;;
9906;SDS011;4992;51.628;6.664;2023-04-30T15:29:44;0.80;;;0.60;;
9906;SDS011;4992;51.628;6.664;2023-04-30T15:32:10;1.05;;;0.52;;
9906;SDS011;4992;51.628;6.664;2023-04-30T15:34:37;3.65;;;0.60;;
9906;SDS011;4992;51.628;6.664;2023-04-30T15:37:03;1.77;;;0.90;;